Time;durP1;ratioP1;P1;durP2;ratioP2;P2;SDS_P1;SDS_P2;PMS_P1;PMS_P2;Temp;Humidity;BMP_temperature;BMP_pressure;BME280_temperature;BME280_humidity;BME280_pressure;Samples;Min_cycle;Max_cycle;Signal;HPM_P1;HPM_P2
2023/11/17 00:00:11;;;;;;;28.75;17.40;;;;;;;6.93;100.00;100770.28;4958864;29;20089;-79
2023/11/17 00:02:38;;;;;;;;;;;;;;;6.95;100.00;100774.41;4959112;29;20071;-79
2023/11/17 00:05:05;;;;;;;32.42;16.02;;;;;;;6.85;100.00;100776.13;4958158;29;19949;-79
2023/11/17 00:07:32;;;;;;;24.55;16.20;;;;;;;6.74;100.00;100790.97;4958144;28;20051;-79
2023/11/17 00:09:58;;;;;;;32.40;16.90;;;;;;;6.64;100.00;100790.91;4957282;29;20454;-79
2023/11/17 00:12:25;;;;;;;23.60;16.73;;;;;;;6.59;100.00;100793.09;4958013;29;20119;-79
2023/11/17 00:14:52;;;;;;;29.02;17.65;;;;;;;6.60;100.00;100794.75;4958941;28;20093;-80
2023/11/17 00:17:20;;;;;;;28.52;15.68;;;;;;;6.56;100.00;100798.56;4958513;28;20055;-80
2023/11/17 00:19:46;;;;;;;27.60;16.65;;;;;;;6.61;100.00;100807.63;4959321;29;20075;-81
2023/11/17 00:22:14;;;;;;;30.23;17.55;;;;;;;6.65;100.00;100808.16;4958959;29;20134;-81
2023/11/17 00:24:41;;;;;;;27.23;16.88;;;;;;;6.54;100.00;100813.44;4958019;29;20512;-81
2023/11/17 00:27:09;;;;;;;29.92;17.50;;;;;;;6.56;100.00;100816.75;4958259;28;20141;-79
2023/11/17 00:29:37;;;;;;;29.20;16.52;;;;;;;6.38;100.00;100811.25;4957684;29;20545;-79
2023/11/17 00:32:04;;;;;;;26.00;16.92;;;;;;;6.44;100.00;100828.97;4957987;29;20055;-78
2023/11/17 00:34:32;;;;;;;27.55;16.30;;;;;;;6.52;100.00;100830.94;4957772;29;20050;-78
2023/11/17 00:37:03;;;;;;;29.08;16.08;;;;;;;6.37;100.00;100839.97;4956182;28;20110;-77
2023/11/17 00:39:30;;;;;;;30.42;16.85;;;;;;;6.40;100.00;100835.34;4955343;29;20050;-78
2023/11/17 00:41:57;;;;;;;31.58;16.95;;;;;;;6.32;100.00;100843.78;4955767;29;20058;-78
2023/11/17 00:44:23;;;;;;;29.50;15.65;;;;;;;6.31;100.00;100841.28;4955423;29;20047;-78
2023/11/17 00:46:50;;;;;;;26.38;17.20;;;;;;;6.25;100.00;100846.97;4955112;28;20134;-78
2023/11/17 00:49:17;;;;;;;32.10;17.35;;;;;;;6.27;100.00;100861.50;4958776;29;20146;-80
2023/11/17 00:51:45;;;;;;;28.52;17.50;;;;;;;6.32;100.00;100853.34;4950764;29;20086;-79
2023/11/17 00:54:14;;;;;;;27.58;17.50;;;;;;;6.25;100.00;100853.00;4958105;29;20494;-79
2023/11/17 00:56:41;;;;;;;31.38;18.30;;;;;;;6.29;100.00;100854.41;4958148;28;20051;-79
2023/11/17 00:59:11;;;;;;;27.38;18.13;;;;;;;6.27;100.00;100858.91;4958149;28;20114;-80
2023/11/17 01:01:40;;;;;;;31.00;17.05;;;;;;;6.17;100.00;100859.75;4961271;29;20625;-78
2023/11/17 01:04:07;;;;;;;28.05;17.15;;;;;;;6.14;100.00;100868.66;4961388;29;20463;-78
2023/11/17 01:06:33;;;;;;;29.15;17.35;;;;;;;6.18;100.00;100870.03;4961188;28;20143;-78
2023/11/17 01:09:04;;;;;;;29.27;17.17;;;;;;;6.12;100.00;100874.91;4960558;29;20106;-78
2023/11/17 01:11:30;;;;;;;28.35;16.90;;;;;;;6.00;100.00;100884.50;4960370;29;20047;-77
2023/11/17 01:13:57;;;;;;;26.65;17.17;;;;;;;6.09;100.00;100891.56;4959787;29;20083;-78
2023/11/17 01:16:24;;;;;;;27.83;17.40;;;;;;;6.02;100.00;100893.00;4960314;28;20051;-78
2023/11/17 01:18:51;;;;;;;30.50;16.90;;;;;;;5.89;100.00;100902.66;4960972;29;20139;-78
2023/11/17 01:21:17;;;;;;;36.05;18.88;;;;;;;5.82;100.00;100910.06;4960140;29;20110;-77
2023/11/17 01:23:44;;;;;;;35.85;18.85;;;;;;;5.83;100.00;100916.09;4958753;29;20051;-78
2023/11/17 01:26:11;;;;;;;31.35;17.58;;;;;;;5.79;100.00;100918.09;4959765;29;20138;-78
2023/11/17 01:28:38;;;;;;;32.83;19.23;;;;;;;5.72;100.00;100926.47;4959694;29;20055;-77
2023/11/17 01:31:04;;;;;;;33.10;19.70;;;;;;;5.71;100.00;100920.47;4959846;29;20119;-78
2023/11/17 01:33:31;;;;;;;34.42;18.40;;;;;;;5.80;100.00;100930.16;4960073;29;20063;-79
2023/11/17 01:35:58;;;;;;;33.22;18.80;;;;;;;5.74;100.00;100941.00;4961536;29;20059;-77
2023/11/17 01:38:26;;;;;;;32.35;18.30;;;;;;;5.64;100.00;100945.25;4961721;29;20143;-81
2023/11/17 01:40:56;;;;;;;34.85;18.83;;;;;;;5.60;100.00;100947.25;4973139;29;20512;-78
2023/11/17 01:43:25;;;;;;;30.85;18.35;;;;;;;5.61;100.00;100951.50;4975862;29;20087;-78
2023/11/17 01:45:52;;;;;;;33.33;18.92;;;;;;;5.44;100.00;100948.53;4974068;29;20051;-78
2023/11/17 01:48:19;;;;;;;33.25;19.75;;;;;;;5.54;100.00;100955.50;4977156;28;20039;-78
2023/11/17 01:50:46;;;;;;;32.80;18.50;;;;;;;5.46;100.00;100957.84;4974258;29;20054;-78
2023/11/17 01:53:13;;;;;;;32.22;19.77;;;;;;;5.32;100.00;100950.25;4963455;29;20134;-78
2023/11/17 01:55:40;;;;;;;33.53;19.77;;;;;;;5.32;100.00;100963.25;4963569;29;20134;-79
2023/11/17 01:58:08;;;;;;;31.73;19.50;;;;;;;5.44;100.00;100958.91;4963521;28;20047;-80
2023/11/17 02:00:36;;;;;;;32.53;19.63;;;;;;;5.44;100.00;100969.28;4963676;29;20062;-80
2023/11/17 02:03:03;;;;;;;39.25;19.65;;;;;;;5.42;100.00;100966.81;4963496;29;20063;-80
2023/11/17 02:05:32;;;;;;;39.70;21.63;;;;;;;5.48;100.00;100971.53;4964301;29;20051;-80
2023/11/17 02:08:12;;;;;;;34.63;20.45;;;;;;;5.53;100.00;100966.84;4963622;28;20087;-79
2023/11/17 02:10:47;;;;;;;34.08;20.55;;;;;;;5.48;100.00;100970.72;4963647;28;20059;-79
2023/11/17 02:13:24;;;;;;;37.10;21.70;;;;;;;5.48;100.00;100965.53;4961021;29;20581;-77
2023/11/17 02:15:55;;;;;;;34.08;20.60;;;;;;;5.59;100.00;100963.78;4960943;29;20055;-78
2023/11/17 02:18:23;;;;;;;36.88;22.20;;;;;;;5.50;100.00;100974.84;4960674;28;20051;-78
2023/11/17 02:20:52;;;;;;;34.53;21.17;;;;;;;5.53;100.00;100971.19;4960573;29;20142;-78
2023/11/17 02:23:21;;;;;;;37.20;23.58;;;;;;;5.54;100.00;100968.50;4960469;29;20494;-78
2023/11/17 02:26:15;;;;;;;43.05;23.15;;;;;;;5.60;100.00;100978.41;4960331;29;20563;-79
2023/11/17 02:28:58;;;;;;;35.53;21.25;;;;;;;5.54;100.00;100973.69;4961551;29;20106;-79
2023/11/17 02:31:29;;;;;;;35.55;23.60;;;;;;;5.63;100.00;100980.78;4960736;29;20047;-79
2023/11/17 02:33:57;;;;;;;36.55;23.60;;;;;;;5.58;100.00;100979.47;4966606;29;20078;-78
2023/11/17 02:36:26;;;;;;;36.63;23.60;;;;;;;5.63;100.00;100975.59;4969459;29;20090;-78
2023/11/17 02:38:57;;;;;;;40.90;22.33;;;;;;;5.70;100.00;100981.13;4968996;29;20055;-78
2023/11/17 02:41:32;;;;;;;35.92;23.30;;;;;;;5.58;100.00;100982.06;4968868;29;20077;-79
2023/11/17 02:44:02;;;;;;;35.83;23.38;;;;;;;5.52;100.00;100983.34;4966885;29;20047;-78
2023/11/17 02:46:32;;;;;;;37.53;23.77;;;;;;;5.49;100.00;100983.56;4968132;28;20134;-78
2023/11/17 02:49:03;;;;;;;37.10;22.33;;;;;;;5.42;100.00;100977.19;4968920;29;20086;-78
2023/11/17 02:51:37;;;;;;;35.40;23.08;;;;;;;5.40;100.00;100984.25;4967823;29;20086;-78
2023/11/17 02:54:08;;;;;;;40.25;21.77;;;;;;;5.43;100.00;100978.84;4967449;29;20061;-78
2023/11/17 02:56:39;;;;;;;35.97;21.60;;;;;;;5.52;100.00;100978.16;4968370;28;20047;-78
2023/11/17 02:59:07;;;;;;;37.75;22.45;;;;;;;5.44;100.00;100996.06;4969612;29;20054;-78
2023/11/17 03:01:36;;;;;;;38.97;22.77;;;;;;;5.38;100.00;101003.47;4970521;29;20177;-79
2023/11/17 03:04:03;;;;;;;38.75;22.70;;;;;;;5.36;100.00;100995.81;4971781;29;20161;-79
2023/11/17 03:06:31;;;;;;;33.35;21.70;;;;;;;5.18;100.00;100997.19;4970592;28;20107;-79
2023/11/17 03:08:58;;;;;;;40.20;22.65;;;;;;;5.14;100.00;101008.72;4970171;29;20059;-79
2023/11/17 03:11:25;;;;;;;42.50;22.50;;;;;;;5.15;100.00;100994.81;4969710;29;20107;-79
2023/11/17 03:13:51;;;;;;;38.42;22.85;;;;;;;5.14;100.00;101001.75;4968101;29;20082;-79
2023/11/17 03:16:23;;;;;;;37.92;21.05;;;;;;;5.18;100.00;100999.78;4967230;28;20051;-79
2023/11/17 03:18:52;;;;;;;41.90;21.60;;;;;;;4.97;100.00;101000.38;4968472;28;20051;-78
2023/11/17 03:21:19;;;;;;;37.42;21.90;;;;;;;5.02;100.00;101007.00;4968343;29;20062;-79
2023/11/17 03:23:46;;;;;;;38.25;22.20;;;;;;;4.90;100.00;101009.53;4968246;28;20130;-79
2023/11/17 03:26:14;;;;;;;36.83;21.88;;;;;;;5.02;100.00;101015.63;4967929;29;20055;-79
2023/11/17 03:28:42;;;;;;;38.40;21.73;;;;;;;4.98;100.00;101012.41;4967876;29;20050;-79
2023/11/17 03:31:13;;;;;;;34.85;21.83;;;;;;;4.89;100.00;101015.66;4966516;29;20066;-78
2023/11/17 03:33:43;;;;;;;41.83;22.85;;;;;;;4.87;100.00;101012.34;4965016;29;20079;-79
2023/11/17 03:36:12;;;;;;;42.30;21.85;;;;;;;4.89;100.00;101018.25;4965631;28;20059;-79
2023/11/17 03:38:40;;;;;;;43.03;22.77;;;;;;;4.88;100.00;101016.59;4965451;29;20509;-78
2023/11/17 03:41:06;;;;;;;36.47;22.52;;;;;;;4.87;100.00;101021.91;4963533;29;20126;-79
2023/11/17 03:43:33;;;;;;;41.45;22.85;;;;;;;4.83;100.00;101020.47;4960470;29;20058;-80
2023/11/17 03:46:00;;;;;;;43.78;23.80;;;;;;;4.79;100.00;101014.66;4960599;29;20086;-79
2023/11/17 03:48:27;;;;;;;50.08;24.27;;;;;;;4.74;100.00;101011.56;4959519;29;20102;-79
2023/11/17 03:50:54;;;;;;;49.78;23.98;;;;;;;4.68;100.00;101012.03;4959847;29;20085;-79
2023/11/17 03:53:22;;;;;;;50.60;26.00;;;;;;;4.73;100.00;101016.84;4958913;29;20159;-79
2023/11/17 03:55:48;;;;;;;59.15;27.33;;;;;;;4.61;100.00;101010.81;4959946;29;20097;-78
2023/11/17 03:58:15;;;;;;;59.60;26.33;;;;;;;4.73;100.00;101016.84;4958932;28;20142;-79
2023/11/17 04:00:45;;;;;;;49.75;25.70;;;;;;;4.72;100.00;101016.06;4960170;29;20138;-80
2023/11/17 04:03:12;;;;;;;53.13;25.85;;;;;;;4.71;100.00;101017.00;4960695;29;20528;-79
2023/11/17 04:05:38;;;;;;;63.95;28.17;;;;;;;4.63;100.00;101029.66;4960593;29;20051;-79
2023/11/17 04:08:05;;;;;;;52.50;27.15;;;;;;;4.68;100.00;101032.78;4960055;28;20134;-80
2023/11/17 04:10:33;;;;;;;68.80;26.50;;;;;;;4.68;100.00;101029.34;4960367;29;20094;-78
2023/11/17 04:13:00;;;;;;;137.43;29.75;;;;;;;4.75;100.00;101027.94;4954532;29;20131;-79
2023/11/17 04:15:26;;;;;;;53.78;27.20;;;;;;;4.77;100.00;101029.50;4959980;29;20424;-79
2023/11/17 04:17:56;;;;;;;54.10;26.25;;;;;;;4.82;100.00;101032.59;4959327;28;20142;-79
2023/11/17 04:20:22;;;;;;;56.63;27.20;;;;;;;4.85;100.00;101040.16;4959566;29;20098;-79
2023/11/17 04:22:49;;;;;;;47.83;25.23;;;;;;;4.87;100.00;101042.66;4958079;29;20055;-79
2023/11/17 04:25:16;;;;;;;47.97;25.13;;;;;;;4.94;100.00;101036.91;4957344;29;20087;-79
2023/11/17 04:27:44;;;;;;;48.13;25.55;;;;;;;4.92;100.00;101038.78;4957763;28;20138;-79
2023/11/17 04:30:11;;;;;;;46.60;24.98;;;;;;;4.94;100.00;101036.91;4956467;29;20139;-78
2023/11/17 04:32:39;;;;;;;51.10;25.17;;;;;;;4.75;100.00;101046.94;4957375;29;20316;-78
2023/11/17 04:35:08;;;;;;;52.03;27.45;;;;;;;4.78;100.00;101051.06;4956917;28;20051;-79
2023/11/17 04:37:38;;;;;;;45.67;25.95;;;;;;;4.81;100.00;101061.22;4958626;28;20051;-79
2023/11/17 04:40:10;;;;;;;47.03;24.65;;;;;;;4.86;100.00;101062.56;4958884;29;20047;-79
2023/11/17 04:42:38;;;;;;;38.33;19.90;;;;;;;4.93;100.00;101058.59;4959069;29;20128;-80
2023/11/17 04:45:08;;;;;;;46.97;25.67;;;;;;;4.87;100.00;101063.38;4959989;29;20070;-79
2023/11/17 04:47:35;;;;;;;45.55;24.92;;;;;;;4.80;100.00;101056.97;4959542;28;20499;-79
2023/11/17 04:50:02;;;;;;;43.67;24.88;;;;;;;4.83;100.00;101069.72;4959179;29;20082;-79
2023/11/17 04:52:30;;;;;;;42.03;23.80;;;;;;;4.85;100.00;101060.06;4959419;29;20168;-79
2023/11/17 04:54:57;;;;;;;41.00;23.58;;;;;;;4.78;100.00;101059.66;4959150;29;20047;-79
2023/11/17 04:57:25;;;;;;;41.95;23.70;;;;;;;4.79;100.00;101050.13;4958423;28;20055;-79
2023/11/17 04:59:52;;;;;;;45.38;23.77;;;;;;;4.77;100.00;101058.00;4956704;29;20146;-78
2023/11/17 05:02:20;;;;;;;41.92;23.70;;;;;;;4.93;100.00;101062.94;4956631;29;20514;-78
2023/11/17 05:04:48;;;;;;;50.55;23.38;;;;;;;4.89;100.00;101067.53;4959499;29;20096;-78
2023/11/17 05:07:14;;;;;;;44.95;23.45;;;;;;;5.04;100.00;101070.81;4958509;28;20047;-79
2023/11/17 05:09:42;;;;;;;49.10;24.90;;;;;;;5.00;100.00;101062.41;4959490;29;20051;-80
2023/11/17 05:12:09;;;;;;;48.50;24.98;;;;;;;5.10;100.00;101070.38;4958510;29;20057;-80
2023/11/17 05:14:37;;;;;;;50.50;25.50;;;;;;;5.15;100.00;101072.63;4958647;29;20532;-80
2023/11/17 05:17:09;;;;;;;52.45;24.95;;;;;;;5.17;100.00;101068.16;4958633;28;20055;-79
2023/11/17 05:19:37;;;;;;;63.63;27.67;;;;;;;5.19;100.00;101068.88;4958937;29;20051;-78
2023/11/17 05:22:06;;;;;;;65.70;28.92;;;;;;;5.20;100.00;101070.53;4955745;29;20064;-78
2023/11/17 05:24:33;;;;;;;67.95;27.88;;;;;;;5.21;100.00;101067.81;4956745;29;20083;-78
2023/11/17 05:27:00;;;;;;;80.65;30.95;;;;;;;5.30;100.00;101074.94;4955203;28;20518;-78
2023/11/17 05:29:27;;;;;;;75.28;29.58;;;;;;;5.35;100.00;101084.97;4957341;29;20098;-79
2023/11/17 05:31:53;;;;;;;73.13;29.55;;;;;;;5.31;100.00;101078.34;4955483;29;20174;-79
2023/11/17 05:34:20;;;;;;;82.03;32.17;;;;;;;5.32;100.00;101083.44;4958618;29;20217;-79
2023/11/17 05:36:49;;;;;;;86.03;30.58;;;;;;;5.31;100.00;101083.53;4958284;28;20051;-80
2023/11/17 05:39:15;;;;;;;83.70;29.58;;;;;;;5.07;100.00;101078.38;4958614;29;20130;-79
2023/11/17 05:41:42;;;;;;;76.15;29.15;;;;;;;5.06;100.00;101091.44;4958850;29;20062;-77
2023/11/17 05:44:09;;;;;;;72.38;28.42;;;;;;;5.04;100.00;101085.53;4958312;28;20089;-80
2023/11/17 05:46:36;;;;;;;95.25;31.25;;;;;;;5.12;100.00;101088.41;4959654;28;20047;-79
2023/11/17 05:49:03;;;;;;;75.32;30.48;;;;;;;5.21;100.00;101092.91;4962077;29;20098;-79
2023/11/17 05:51:30;;;;;;;109.47;31.20;;;;;;;5.10;100.00;101095.47;4961619;29;20063;-79
2023/11/17 05:53:58;;;;;;;81.85;30.00;;;;;;;5.10;100.00;101091.13;4960252;29;20051;-79
2023/11/17 05:56:25;;;;;;;94.28;32.67;;;;;;;5.18;100.00;101087.97;4960413;28;20047;-80
2023/11/17 05:58:52;;;;;;;80.28;31.10;;;;;;;5.25;100.00;101084.81;4960765;29;20056;-79
2023/11/17 06:01:18;;;;;;;83.50;31.63;;;;;;;5.25;100.00;101099.53;4961366;29;20055;-79
2023/11/17 06:03:45;;;;;;;83.80;31.33;;;;;;;5.28;100.00;101094.97;4960124;29;20055;-79
2023/11/17 06:06:12;;;;;;;85.05;37.47;;;;;;;5.38;100.00;101095.13;4959644;28;20055;-79
2023/11/17 06:08:39;;;;;;;79.93;34.17;;;;;;;5.42;100.00;101103.53;4960038;29;20114;-78
2023/11/17 06:11:08;;;;;;;75.60;31.08;;;;;;;5.30;100.00;101103.47;4960142;29;20072;-79
2023/11/17 06:13:34;;;;;;;100.78;32.65;;;;;;;5.12;100.00;101091.84;4955239;29;20334;-79
2023/11/17 06:16:01;;;;;;;73.88;32.63;;;;;;;5.26;100.00;101101.22;4958836;28;20139;-79
2023/11/17 06:18:28;;;;;;;79.55;30.88;;;;;;;5.38;100.00;101115.91;4959090;29;20051;-79
2023/11/17 06:20:54;;;;;;;92.20;33.15;;;;;;;5.17;100.00;101105.31;4959856;29;20395;-79
2023/11/17 06:23:21;;;;;;;77.18;32.20;;;;;;;5.22;100.00;101108.38;4958645;29;20101;-79
2023/11/17 06:25:48;;;;;;;93.13;31.77;;;;;;;5.09;100.00;101104.19;4959476;29;20450;-79
2023/11/17 06:28:16;;;;;;;135.73;30.23;;;;;;;5.16;100.00;101110.59;4959308;28;20054;-79
2023/11/17 06:30:43;;;;;;;74.35;30.27;;;;;;;5.20;100.00;101112.06;4959091;29;20138;-79
2023/11/17 06:33:10;;;;;;;98.78;30.48;;;;;;;5.19;100.00;101110.41;4957426;29;20111;-79
2023/11/17 06:35:37;;;;;;;157.32;31.45;;;;;;;5.03;100.00;101100.28;4957922;29;20054;-79
2023/11/17 06:38:03;;;;;;;113.97;30.48;;;;;;;5.14;100.00;101118.50;4957725;29;20134;-78
2023/11/17 06:40:30;;;;;;;219.88;34.15;;;;;;;5.08;100.00;101116.34;4957542;29;20055;-78
2023/11/17 06:42:58;;;;;;;137.50;32.22;;;;;;;5.19;100.00;101115.59;4956172;29;20051;-78
2023/11/17 06:45:27;;;;;;;193.13;34.17;;;;;;;5.18;100.00;101122.53;4956345;29;20059;-77
2023/11/17 06:47:53;;;;;;;75.28;31.45;;;;;;;5.17;100.00;101120.06;4956052;29;20110;-78
2023/11/17 06:50:21;;;;;;;80.78;34.60;;;;;;;5.27;100.00;101127.03;4956806;29;20053;-79
2023/11/17 06:52:48;;;;;;;97.35;33.20;;;;;;;5.26;100.00;101117.59;4957776;29;20055;-79
2023/11/17 06:55:15;;;;;;;86.57;32.78;;;;;;;5.31;100.00;101130.25;4957278;29;20097;-78
2023/11/17 06:57:43;;;;;;;224.68;36.10;;;;;;;5.31;100.00;101127.66;4955665;28;20051;-78
2023/11/17 07:00:12;;;;;;;282.30;40.08;;;;;;;4.89;100.00;101119.38;4955113;29;20066;-79
2023/11/17 07:02:41;;;;;;;287.23;38.20;;;;;;;4.80;100.00;101135.59;4954659;29;20079;-78
2023/11/17 07:05:10;;;;;;;139.90;33.92;;;;;;;5.05;100.00;101129.53;4955891;29;20058;-78
2023/11/17 07:07:37;;;;;;;99.60;33.30;;;;;;;5.19;100.00;101128.56;4957502;28;20324;-79
2023/11/17 07:10:07;;;;;;;251.38;37.67;;;;;;;5.07;100.00;101130.25;4956357;29;20082;-79
2023/11/17 07:12:35;;;;;;;311.48;41.65;;;;;;;4.72;100.00;101126.72;4955900;29;20048;-81
2023/11/17 07:15:03;;;;;;;144.43;34.83;;;;;;;4.94;100.00;101135.47;4959687;29;20417;-79
2023/11/17 07:17:29;;;;;;;145.85;36.63;;;;;;;5.10;100.00;101136.97;4959335;29;20055;-78
2023/11/17 07:19:57;;;;;;;203.00;34.50;;;;;;;5.12;100.00;101146.31;4961691;29;20549;-80
2023/11/17 07:22:24;;;;;;;164.18;36.15;;;;;;;4.97;100.00;101132.66;4964265;29;20085;-80
2023/11/17 07:24:51;;;;;;;147.00;35.33;;;;;;;5.06;100.00;101151.09;4960644;29;20135;-80
2023/11/17 07:27:17;;;;;;;209.45;36.33;;;;;;;4.94;100.00;101147.59;4960602;29;20062;-79
2023/11/17 07:29:44;;;;;;;157.32;34.47;;;;;;;4.91;100.00;101151.22;4960364;29;20279;-79
2023/11/17 07:32:10;;;;;;;214.10;36.88;;;;;;;4.79;100.00;101139.13;4960011;29;20134;-80
2023/11/17 07:34:37;;;;;;;146.63;33.58;;;;;;;4.79;100.00;101133.09;4959953;29;20083;-79
2023/11/17 07:37:05;;;;;;;280.40;40.90;;;;;;;4.77;100.00;101137.56;4959458;28;20048;-78
2023/11/17 07:39:32;;;;;;;217.50;36.70;;;;;;;4.89;100.00;101139.31;4959811;29;20232;-79
2023/11/17 07:41:58;;;;;;;150.38;34.00;;;;;;;4.94;100.00;101161.38;4959957;29;20458;-79
2023/11/17 07:44:25;;;;;;;150.15;34.85;;;;;;;4.99;100.00;101153.28;4957857;29;20488;-77
2023/11/17 07:46:52;;;;;;;270.02;39.92;;;;;;;4.92;100.00;101163.25;4958462;29;20043;-78
2023/11/17 07:49:19;;;;;;;244.35;38.65;;;;;;;4.91;100.00;101161.59;4960938;28;20122;-78
2023/11/17 07:51:47;;;;;;;147.10;36.42;;;;;;;5.07;100.00;101169.16;4960104;29;20051;-77
2023/11/17 07:54:16;;;;;;;107.47;37.78;;;;;;;5.41;100.00;101162.41;4959881;29;20047;-78
2023/11/17 07:56:42;;;;;;;89.43;36.17;;;;;;;5.46;100.00;101160.31;4959545;28;20081;-78
2023/11/17 07:59:12;;;;;;;100.88;37.63;;;;;;;5.55;100.00;101170.03;4964354;29;20065;-78
2023/11/17 08:01:39;;;;;;;83.82;35.22;;;;;;;5.58;100.00;101174.16;4967334;28;20067;-78
2023/11/17 08:04:08;;;;;;;96.05;44.63;;;;;;;5.65;100.00;101173.63;4968304;29;20424;-79
2023/11/17 08:06:35;;;;;;;96.18;39.45;;;;;;;5.66;100.00;101180.47;4957205;29;20494;-77
2023/11/17 08:09:02;;;;;;;84.57;36.35;;;;;;;5.58;100.00;101175.00;4952921;28;20111;-78
2023/11/17 08:11:30;;;;;;;72.80;34.88;;;;;;;5.50;100.00;101172.13;4957791;28;20058;-79
2023/11/17 08:13:57;;;;;;;78.63;34.88;;;;;;;5.55;100.00;101179.59;4956405;29;20093;-79
2023/11/17 08:16:24;;;;;;;81.32;37.45;;;;;;;5.36;100.00;101174.88;4957282;28;20121;-79
2023/11/17 08:18:51;;;;;;;87.40;36.33;;;;;;;5.49;100.00;101180.00;4956173;29;20466;-79
2023/11/17 08:21:18;;;;;;;78.93;36.88;;;;;;;5.60;100.00;101178.31;4955777;28;20493;-78
2023/11/17 08:23:44;;;;;;;81.20;36.13;;;;;;;5.71;100.00;101187.91;4957019;29;20115;-78
2023/11/17 08:26:14;;;;;;;95.25;41.10;;;;;;;5.99;100.00;101182.41;4956482;28;20059;-78
2023/11/17 08:28:42;;;;;;;86.28;38.30;;;;;;;5.83;100.00;101178.41;4957221;29;20490;-78
2023/11/17 08:31:12;;;;;;;96.80;39.72;;;;;;;5.74;100.00;101179.06;4956216;29;20146;-78
2023/11/17 08:33:38;;;;;;;94.60;41.97;;;;;;;5.77;100.00;101191.81;4955973;29;20094;-77
2023/11/17 08:36:09;;;;;;;107.63;42.05;;;;;;;5.86;100.00;101191.16;4955417;29;20413;-78
2023/11/17 08:38:39;;;;;;;117.43;43.45;;;;;;;5.84;100.00;101195.63;4954995;29;20047;-78
2023/11/17 08:41:05;;;;;;;121.88;45.80;;;;;;;5.72;100.00;101202.53;4953535;29;20082;-78
2023/11/17 08:43:32;;;;;;;117.63;45.55;;;;;;;5.79;100.00;101201.16;4952695;29;20093;-78
2023/11/17 08:46:00;;;;;;;124.57;46.72;;;;;;;5.72;100.00;101201.72;4952943;29;20070;-78
2023/11/17 08:48:27;;;;;;;122.25;46.22;;;;;;;5.73;100.00;101204.19;4954364;29;20134;-79
2023/11/17 08:50:53;;;;;;;112.25;45.83;;;;;;;5.73;100.00;101208.56;4954743;29;20055;-78
2023/11/17 08:53:20;;;;;;;115.30;47.53;;;;;;;5.87;100.00;101206.63;4950713;29;20082;-78
2023/11/17 08:55:46;;;;;;;130.10;46.17;;;;;;;5.83;100.00;101205.19;4955077;29;20083;-78
2023/11/17 08:58:13;;;;;;;124.40;46.13;;;;;;;5.89;100.00;101206.56;4954335;28;20134;-78
2023/11/17 09:00:40;;;;;;;108.20;45.83;;;;;;;5.89;100.00;101209.16;4954846;29;20138;-78
2023/11/17 09:03:09;;;;;;;120.63;46.45;;;;;;;6.09;100.00;101208.53;4956293;29;20054;-79
2023/11/17 09:05:36;;;;;;;115.10;46.40;;;;;;;6.15;100.00;101210.66;4955434;29;20083;-78
2023/11/17 09:08:02;;;;;;;113.45;45.83;;;;;;;6.17;100.00;101200.97;4956585;28;20438;-78
2023/11/17 09:10:31;;;;;;;121.60;48.15;;;;;;;6.14;100.00;101209.03;4958487;29;20074;-78
2023/11/17 09:12:57;;;;;;;106.05;44.97;;;;;;;6.19;100.00;101200.84;4959328;29;20158;-78
2023/11/17 09:15:24;;;;;;;112.53;46.30;;;;;;;6.39;100.00;101207.19;4969493;29;20075;-78
2023/11/17 09:17:51;;;;;;;110.50;46.63;;;;;;;6.20;100.00;101211.13;4968736;28;20054;-79
2023/11/17 09:20:21;;;;;;;109.25;45.50;;;;;;;6.32;100.00;101223.22;4969859;28;20057;-79
2023/11/17 09:22:49;;;;;;;106.35;47.00;;;;;;;6.33;100.00;101224.88;4972110;29;20051;-79
2023/11/17 09:25:17;;;;;;;99.13;44.55;;;;;;;6.42;100.00;101223.38;4965409;29;20530;-79
2023/11/17 09:27:46;;;;;;;107.75;47.13;;;;;;;6.61;100.00;101223.66;4960496;28;20521;-79
2023/11/17 09:30:14;;;;;;;111.90;44.92;;;;;;;6.64;100.00;101220.81;4963042;29;20081;-80
2023/11/17 09:32:43;;;;;;;114.07;47.28;;;;;;;6.62;100.00;101227.88;4962414;29;20055;-80
2023/11/17 09:35:13;;;;;;;102.47;44.70;;;;;;;6.34;100.00;101228.31;4962104;29;20063;-80
2023/11/17 09:37:49;;;;;;;108.05;45.67;;;;;;;6.48;100.00;101227.28;4963454;29;20058;-79
2023/11/17 09:40:20;;;;;;;111.60;46.85;;;;;;;6.40;100.00;101229.63;4962821;29;20134;-79
2023/11/17 09:42:50;;;;;;;110.90;45.83;;;;;;;6.54;100.00;101226.84;4959824;29;20118;-79
2023/11/17 09:45:20;;;;;;;103.10;45.05;;;;;;;6.54;100.00;101229.44;4959838;29;20289;-79
2023/11/17 09:47:49;;;;;;;100.72;45.08;;;;;;;6.63;100.00;101226.94;4956111;29;20047;-79
2023/11/17 09:50:18;;;;;;;104.50;45.97;;;;;;;6.73;100.00;101231.47;4959792;29;20066;-80
2023/11/17 09:52:49;;;;;;;104.70;45.53;;;;;;;6.62;100.00;101224.47;4957555;29;20433;-80
2023/11/17 09:55:17;;;;;;;96.25;43.60;;;;;;;6.60;100.00;101232.41;4961127;29;20434;-79
2023/11/17 09:57:46;;;;;;;104.85;43.22;;;;;;;6.73;100.00;101232.28;4961501;28;20054;-80
2023/11/17 10:00:20;;;;;;;107.25;44.55;;;;;;;6.74;100.00;101235.72;4961830;28;20134;-80
2023/11/17 10:02:51;;;;;;;103.45;45.42;;;;;;;6.81;100.00;101235.13;4961593;29;20418;-79
2023/11/17 10:05:19;;;;;;;103.53;45.22;;;;;;;6.80;100.00;101233.47;4961459;29;20055;-79
2023/11/17 10:07:50;;;;;;;102.22;45.60;;;;;;;6.98;100.00;101237.28;4960826;28;20066;-80
2023/11/17 10:10:19;;;;;;;108.00;46.25;;;;;;;6.77;100.00;101233.72;4960983;29;20134;-79
2023/11/17 10:12:48;;;;;;;109.63;47.65;;;;;;;6.67;100.00;101227.53;4958786;29;20495;-79
2023/11/17 10:15:18;;;;;;;106.20;47.22;;;;;;;6.73;100.00;101227.09;4959995;29;20084;-80
2023/11/17 10:17:48;;;;;;;106.63;45.45;;;;;;;6.81;100.00;101229.94;4960517;28;20536;-79
2023/11/17 10:20:18;;;;;;;103.20;44.05;;;;;;;6.90;100.00;101231.00;4960250;29;20082;-79
2023/11/17 10:22:49;;;;;;;102.38;43.50;;;;;;;7.01;100.00;101236.22;4953463;29;20084;-80
2023/11/17 10:25:18;;;;;;;100.15;42.20;;;;;;;6.96;100.00;101235.75;4960067;29;20051;-79
2023/11/17 10:27:46;;;;;;;95.60;43.63;;;;;;;7.05;100.00;101237.66;4960058;28;20061;-79
2023/11/17 10:30:15;;;;;;;89.00;42.13;;;;;;;7.19;100.00;101233.94;4961831;29;20106;-80
2023/11/17 10:32:50;;;;;;;97.35;43.28;;;;;;;6.97;100.00;101235.63;4961407;28;20425;-79
2023/11/17 10:35:24;;;;;;;95.88;43.67;;;;;;;6.98;100.00;101233.84;4959055;29;20051;-80
2023/11/17 10:37:54;;;;;;;96.90;43.45;;;;;;;7.21;100.00;101224.25;4959780;28;20106;-79
2023/11/17 10:40:25;;;;;;;90.40;43.05;;;;;;;7.30;100.00;101226.13;4963009;29;20487;-79
2023/11/17 10:43:07;;;;;;;86.47;41.67;;;;;;;7.36;100.00;101232.63;4962225;29;20141;-79
2023/11/17 10:45:35;;;;;;;87.45;40.97;;;;;;;7.43;100.00;101221.63;4961620;29;20110;-79
2023/11/17 10:48:03;;;;;;;92.65;42.13;;;;;;;7.29;100.00;101219.28;4960707;28;20051;-80
2023/11/17 10:50:30;;;;;;;87.57;41.75;;;;;;;7.64;100.00;101232.91;4961366;29;20051;-80
2023/11/17 10:53:12;;;;;;;101.72;42.40;;;;;;;7.28;100.00;101220.22;4960250;29;20051;-80
2023/11/17 10:55:42;;;;;;;89.90;39.20;;;;;;;7.38;100.00;101228.13;4960362;29;20126;-78
2023/11/17 10:58:13;;;;;;;84.10;40.55;;;;;;;7.52;100.00;101220.91;4958341;28;20101;-79
2023/11/17 11:00:40;;;;;;;93.97;40.88;;;;;;;7.61;100.00;101225.34;4959221;29;20070;-79
2023/11/17 11:03:09;;;;;;;85.93;40.47;;;;;;;7.77;100.00;101229.34;4958565;29;20142;-78
2023/11/17 11:05:38;;;;;;;82.05;40.20;;;;;;;7.59;100.00;101222.03;4958174;29;20050;-79
2023/11/17 11:08:12;;;;;;;76.38;38.90;;;;;;;7.63;100.00;101223.44;4958925;28;20051;-79
2023/11/17 11:10:39;;;;;;;82.40;38.63;;;;;;;7.41;100.00;101212.28;4959248;29;20069;-78